Time;durP1;ratioP1;P1;durP2;ratioP2;P2;SDS_P1;SDS_P2;PMS_P1;PMS_P2;Temp;Humidity;BMP_temperature;BMP_pressure;BME280_temperature;BME280_humidity;BME280_pressure;Samples;Min_cycle;Max_cycle;Signal;HPM_P1;HPM_P2
2022/11/28 00:01:18;;;;;;;6.37;4.53;;;9.20;99.90;;;;;;4986771;28;20445;-70
2022/11/28 00:03:46;;;;;;;5.13;4.10;;;9.20;99.90;;;;;;4998999;28;20431;-70
2022/11/28 00:06:15;;;;;;;6.73;4.47;;;9.30;99.90;;;;;;5014975;28;20742;-70
2022/11/28 00:08:43;;;;;;;6.20;4.37;;;9.30;99.90;;;;;;4995884;28;20523;-70
2022/11/28 00:11:13;;;;;;;5.43;4.13;;;9.20;99.90;;;;;;4995829;28;20469;-70
2022/11/28 00:13:39;;;;;;;5.60;3.83;;;9.20;99.90;;;;;;4993263;28;20409;-70
2022/11/28 00:16:12;;;;;;;4.73;4.13;;;9.30;99.90;;;;;;4978014;28;20425;-70
2022/11/28 00:18:37;;;;;;;5.60;3.77;;;9.20;99.90;;;;;;4961934;28;20425;-70
2022/11/28 00:21:12;;;;;;;4.43;4.00;;;9.20;99.90;;;;;;4985752;28;20448;-70
2022/11/28 00:23:41;;;;;;;6.80;4.80;;;9.30;99.90;;;;;;4991636;28;20926;-70
2022/11/28 00:26:13;;;;;;;4.70;3.40;;;9.30;99.90;;;;;;4977416;28;20421;-70
2022/11/28 00:28:43;;;;;;;7.77;4.67;;;9.30;99.90;;;;;;4999466;28;20651;-70
2022/11/28 00:31:19;;;;;;;5.70;5.13;;;9.30;99.90;;;;;;4987762;28;20465;-70
2022/11/28 00:33:47;;;;;;;6.37;3.73;;;9.30;99.90;;;;;;4981905;28;20420;-70
2022/11/28 00:36:16;;;;;;;5.30;4.30;;;9.30;99.90;;;;;;4996631;28;20508;-69
2022/11/28 00:38:42;;;;;;;5.97;4.33;;;9.30;99.90;;;;;;5009441;28;20760;-70
2022/11/28 00:41:14;;;;;;;6.87;3.80;;;9.30;99.90;;;;;;5003401;28;20790;-70
2022/11/28 00:43:46;;;;;;;7.40;3.90;;;9.30;99.90;;;;;;4980102;28;20432;-70
2022/11/28 00:46:13;;;;;;;4.73;3.80;;;9.20;99.90;;;;;;5014251;28;20404;-70
2022/11/28 00:48:41;;;;;;;6.43;4.17;;;9.30;99.90;;;;;;4996267;28;20448;-70
2022/11/28 00:51:11;;;;;;;4.40;3.77;;;9.20;99.90;;;;;;4987456;28;20499;-70
2022/11/28 00:53:41;;;;;;;6.13;4.53;;;9.20;99.90;;;;;;4991533;28;20452;-70
2022/11/28 00:56:12;;;;;;;6.07;4.03;;;9.30;99.90;;;;;;4996585;28;20472;-69
2022/11/28 00:58:41;;;;;;;5.57;4.33;;;9.30;99.90;;;;;;4998986;28;20495;-70
2022/11/28 01:01:12;;;;;;;6.10;4.07;;;9.30;99.90;;;;;;4984698;28;20444;-70
2022/11/28 01:03:40;;;;;;;5.73;4.40;;;9.30;99.90;;;;;;4964114;28;20416;-70
2022/11/28 01:06:12;;;;;;;5.27;3.87;;;9.30;99.90;;;;;;4983917;28;20950;-70
2022/11/28 01:08:48;;;;;;;7.63;4.77;;;9.20;99.90;;;;;;5013619;28;20397;-70
2022/11/28 01:11:14;;;;;;;6.00;4.77;;;9.20;99.90;;;;;;4992360;28;20473;-70
2022/11/28 01:13:42;;;;;;;6.27;4.40;;;9.20;99.90;;;;;;4978419;28;20468;-70
2022/11/28 01:16:11;;;;;;;5.33;4.53;;;9.20;99.90;;;;;;4988790;28;20421;-70
2022/11/28 01:18:42;;;;;;;7.90;4.17;;;9.20;99.90;;;;;;4976708;28;20408;-70
2022/11/28 01:21:13;;;;;;;4.90;3.97;;;9.20;99.90;;;;;;4949588;28;20448;-70
2022/11/28 01:23:41;;;;;;;5.80;3.93;;;9.20;99.90;;;;;;4994024;28;20492;-70
2022/11/28 01:26:08;;;;;;;5.83;3.93;;;9.20;99.90;;;;;;4999954;28;20427;-70
2022/11/28 01:28:35;;;;;;;4.90;4.00;;;9.20;99.90;;;;;;5012051;28;20868;-70
2022/11/28 01:31:09;;;;;;;5.27;3.70;;;9.20;99.90;;;;;;4988275;28;20838;-69
2022/11/28 01:33:35;;;;;;;5.73;3.90;;;9.20;99.90;;;;;;4976473;28;20396;-70
2022/11/28 01:36:03;;;;;;;5.23;4.20;;;9.20;99.90;;;;;;4999761;28;20475;-70
2022/11/28 01:38:33;;;;;;;5.77;4.13;;;9.20;99.90;;;;;;4988073;28;20491;-70
2022/11/28 01:41:12;;;;;;;6.33;4.27;;;9.20;99.90;;;;;;4983252;28;20798;-70
2022/11/28 01:43:55;;;;;;;4.43;4.03;;;9.20;99.90;;;;;;4995719;28;20444;-70
2022/11/28 01:46:25;;;;;;;4.13;3.20;;;9.20;99.90;;;;;;5003871;28;20443;-70
2022/11/28 01:49:02;;;;;;;8.20;4.73;;;9.20;99.90;;;;;;4993274;28;20464;-70
2022/11/28 01:51:32;;;;;;;6.00;4.20;;;9.20;99.90;;;;;;4982887;28;20508;-72
2022/11/28 01:53:58;;;;;;;5.67;4.53;;;9.20;99.90;;;;;;4976450;28;20492;-72
2022/11/28 01:56:37;;;;;;;4.80;4.30;;;9.20;99.90;;;;;;5008996;28;20427;-72
2022/11/28 01:59:07;;;;;;;5.30;4.10;;;9.20;99.90;;;;;;4995789;28;20476;-72
2022/11/28 02:01:38;;;;;;;6.77;4.33;;;9.20;99.90;;;;;;4993379;28;20497;-72
2022/11/28 02:04:05;;;;;;;5.60;4.00;;;9.20;99.90;;;;;;4995544;28;20408;-72
2022/11/28 02:06:32;;;;;;;9.10;4.37;;;9.20;99.90;;;;;;4994630;28;20812;-71
2022/11/28 02:09:02;;;;;;;5.23;3.70;;;9.20;99.90;;;;;;4995612;28;20786;-71
2022/11/28 02:11:52;;;;;;;5.13;4.20;;;9.20;99.90;;;;;;4994871;28;20539;-71
2022/11/28 02:14:25;;;;;;;12.10;4.53;;;9.20;99.90;;;;;;4993165;28;20535;-72
2022/11/28 02:16:57;;;;;;;6.10;3.87;;;9.20;99.90;;;;;;4979230;28;20432;-72
2022/11/28 02:19:50;;;;;;;6.90;4.13;;;9.20;99.90;;;;;;5012720;28;20399;-72
2022/11/28 02:22:51;;;;;;;4.83;4.20;;;9.20;99.90;;;;;;4993059;28;20427;-72
2022/11/28 02:25:32;;;;;;;6.17;4.60;;;9.20;99.90;;;;;;4982422;28;20443;-72
2022/11/28 02:28:16;;;;;;;7.67;4.40;;;9.20;99.90;;;;;;5007917;28;20504;-72
2022/11/28 02:31:17;;;;;;;5.13;4.30;;;9.20;99.90;;;;;;4976127;28;20984;-72
2022/11/28 02:34:00;;;;;;;5.70;4.00;;;9.20;99.90;;;;;;4918232;28;20439;-72
2022/11/28 02:36:50;;;;;;;8.37;4.33;;;9.20;99.90;;;;;;4976535;28;20780;-72
2022/11/28 02:39:39;;;;;;;5.23;4.00;;;9.20;99.90;;;;;;4975563;28;20516;-71
2022/11/28 02:42:07;;;;;;;6.07;4.73;;;9.20;99.90;;;;;;4994947;28;20436;-72
2022/11/28 02:44:54;;;;;;;5.93;3.83;;;9.20;99.90;;;;;;4994775;28;20428;-71
2022/11/28 02:47:31;;;;;;;6.87;4.27;;;9.20;99.90;;;;;;4994259;28;20543;-72
2022/11/28 02:50:20;;;;;;;5.03;4.30;;;9.20;99.90;;;;;;4994686;28;20479;-72
2022/11/28 02:52:52;;;;;;;6.13;4.67;;;9.20;99.90;;;;;;5011044;28;20413;-72
2022/11/28 02:55:20;;;;;;;4.80;4.30;;;9.20;99.90;;;;;;4994272;28;20942;-72
2022/11/28 02:57:53;;;;;;;5.47;4.43;;;9.20;99.90;;;;;;4978627;28;20446;-72
2022/11/28 03:00:36;;;;;;;4.60;3.80;;;9.20;99.90;;;;;;5005463;28;20452;-71
2022/11/28 03:03:35;;;;;;;5.27;3.87;;;9.20;99.90;;;;;;4975874;28;20954;-71
2022/11/28 03:06:16;;;;;;;6.90;4.03;;;9.20;99.90;;;;;;4994721;28;20439;-71
2022/11/28 03:09:21;;;;;;;4.80;4.20;;;9.20;99.90;;;;;;4993433;28;20594;-72
2022/11/28 03:12:11;;;;;;;4.30;3.90;;;9.20;99.90;;;;;;4962134;28;20507;-72
2022/11/28 03:15:03;;;;;;;5.00;4.40;;;9.20;99.90;;;;;;4994632;28;20538;-72
2022/11/28 03:17:46;;;;;;;4.67;3.77;;;9.20;99.90;;;;;;5010383;28;20432;-72
2022/11/28 03:20:27;;;;;;;5.13;4.50;;;9.20;99.90;;;;;;4979543;28;20472;-72
2022/11/28 03:23:18;;;;;;;6.50;4.20;;;9.20;99.90;;;;;;4985726;28;21010;-72
2022/11/28 03:26:06;;;;;;;4.47;3.90;;;9.20;99.90;;;;;;5001189;28;20421;-72
2022/11/28 03:29:18;;;;;;;6.77;5.17;;;9.20;99.90;;;;;;4997148;28;20516;-71
2022/11/28 03:31:52;;;;;;;6.20;4.47;;;9.20;99.90;;;;;;4970104;28;20456;-72
2022/11/28 03:34:37;;;;;;;5.53;4.17;;;9.20;99.90;;;;;;4980259;28;21010;-72
2022/11/28 03:37:10;;;;;;;5.83;4.80;;;9.20;99.90;;;;;;4996529;28;20385;-72
2022/11/28 03:39:43;;;;;;;6.20;4.70;;;9.20;99.90;;;;;;5015725;28;20404;-72
2022/11/28 03:42:14;;;;;;;5.80;4.20;;;9.20;99.90;;;;;;4996237;28;20425;-72
2022/11/28 03:45:12;;;;;;;5.07;3.83;;;9.20;99.90;;;;;;4998670;28;20933;-72
2022/11/28 03:47:51;;;;;;;4.93;3.83;;;9.20;99.90;;;;;;4990575;28;20443;-72
2022/11/28 03:50:23;;;;;;;5.63;4.67;;;9.20;99.90;;;;;;5013769;28;20478;-71
2022/11/28 03:52:54;;;;;;;5.53;4.47;;;9.20;99.90;;;;;;4992044;28;20425;-72
2022/11/28 03:55:31;;;;;;;6.37;5.07;;;9.20;99.90;;;;;;4959221;28;20435;-72
2022/11/28 03:58:09;;;;;;;5.73;4.30;;;9.20;99.90;;;;;;4991487;28;20698;-72
2022/11/28 04:00:50;;;;;;;4.93;4.50;;;9.20;99.90;;;;;;4978413;28;20543;-72
2022/11/28 04:03:24;;;;;;;5.70;4.70;;;9.20;99.90;;;;;;5003717;28;20422;-72
2022/11/28 04:06:01;;;;;;;6.37;4.63;;;9.20;99.90;;;;;;5015477;28;20412;-72
2022/11/28 04:08:34;;;;;;;5.10;4.60;;;9.20;99.90;;;;;;4997507;28;20409;-72
2022/11/28 04:11:06;;;;;;;5.97;5.07;;;9.20;99.90;;;;;;4991795;28;20479;-72
2022/11/28 04:13:45;;;;;;;5.20;4.27;;;9.20;99.90;;;;;;4993892;28;20919;-72
2022/11/28 04:16:44;;;;;;;7.07;5.40;;;9.20;99.90;;;;;;4978763;28;20430;-72
2022/11/28 04:19:32;;;;;;;5.03;4.53;;;9.20;99.90;;;;;;4994182;28;20460;-72
2022/11/28 04:22:08;;;;;;;5.83;4.77;;;9.20;99.90;;;;;;4994405;28;20441;-72
2022/11/28 04:25:01;;;;;;;6.53;4.77;;;9.20;99.90;;;;;;5006557;28;20456;-72
2022/11/28 04:27:32;;;;;;;5.60;4.90;;;9.20;99.90;;;;;;4966029;28;20445;-72
2022/11/28 04:30:01;;;;;;;5.90;4.60;;;9.20;99.90;;;;;;4945943;28;20511;-72
2022/11/28 04:32:30;;;;;;;5.40;4.50;;;9.20;99.90;;;;;;4978588;28;20421;-72
2022/11/28 04:35:03;;;;;;;6.10;4.70;;;9.20;99.90;;;;;;4977984;28;20460;-72
2022/11/28 04:37:35;;;;;;;6.53;4.53;;;9.20;99.90;;;;;;4997280;28;20515;-72
2022/11/28 04:40:04;;;;;;;5.17;4.00;;;9.20;99.90;;;;;;4983235;28;20524;-72
2022/11/28 04:42:43;;;;;;;6.27;4.70;;;9.20;99.90;;;;;;4978892;28;20447;-72
2022/11/28 04:45:23;;;;;;;7.20;4.57;;;9.20;99.90;;;;;;5009123;28;20423;-72
2022/11/28 04:47:54;;;;;;;4.73;4.23;;;9.20;99.90;;;;;;4989630;28;20468;-72
2022/11/28 04:50:27;;;;;;;5.03;4.20;;;9.20;99.90;;;;;;5014351;28;20460;-72
2022/11/28 04:53:32;;;;;;;6.20;4.47;;;9.20;99.90;;;;;;5013370;28;20460;-72
2022/11/28 04:56:14;;;;;;;5.53;4.60;;;9.20;99.90;;;;;;4918347;29;20533;-72
2022/11/28 04:58:44;;;;;;;5.10;4.00;;;9.20;99.90;;;;;;5008043;28;20460;-72
2022/11/28 05:01:17;;;;;;;6.10;4.63;;;9.20;99.90;;;;;;4996772;28;21020;-72
2022/11/28 05:03:48;;;;;;;5.73;4.93;;;9.20;99.90;;;;;;5014190;28;20447;-72
2022/11/28 05:06:27;;;;;;;8.30;4.30;;;9.20;99.90;;;;;;5012360;28;20428;-72
2022/11/28 05:08:55;;;;;;;6.47;4.57;;;9.20;99.90;;;;;;4996788;28;20916;-71
2022/11/28 05:11:21;;;;;;;6.33;4.80;;;9.20;99.90;;;;;;4980189;28;20551;-72
2022/11/28 05:13:47;;;;;;;6.60;4.77;;;9.20;99.90;;;;;;5009897;28;20863;-72
2022/11/28 05:16:16;;;;;;;5.63;4.40;;;9.20;99.90;;;;;;4993696;28;20451;-72
2022/11/28 05:18:42;;;;;;;5.10;4.50;;;9.20;99.90;;;;;;4977380;28;20425;-72
2022/11/28 05:21:09;;;;;;;5.27;4.17;;;9.20;99.90;;;;;;4995061;28;20520;-72
2022/11/28 05:23:41;;;;;;;7.27;4.83;;;9.20;99.90;;;;;;5012987;28;20415;-72
2022/11/28 05:26:18;;;;;;;5.53;4.10;;;9.20;99.90;;;;;;5011105;28;20521;-72
2022/11/28 05:28:48;;;;;;;4.40;3.77;;;9.20;99.90;;;;;;5014552;28;20431;-71
2022/11/28 05:31:15;;;;;;;6.17;4.40;;;9.20;99.90;;;;;;5016856;28;20467;-73
2022/11/28 05:33:41;;;;;;;5.50;4.40;;;9.20;99.90;;;;;;4996202;28;21044;-71
2022/11/28 05:36:10;;;;;;;6.50;4.20;;;9.20;99.90;;;;;;4961803;28;20435;-72
2022/11/28 05:38:37;;;;;;;4.80;4.30;;;9.20;99.90;;;;;;4995813;28;20537;-72
2022/11/28 05:41:03;;;;;;;7.00;4.83;;;9.20;99.90;;;;;;4994299;28;20448;-72
2022/11/28 05:43:34;;;;;;;6.07;4.10;;;9.20;99.90;;;;;;4996805;28;20572;-72
2022/11/28 05:46:05;;;;;;;5.13;3.93;;;9.20;99.90;;;;;;4995233;28;20425;-72
2022/11/28 05:48:31;;;;;;;6.50;4.83;;;9.20;99.90;;;;;;4995958;28;20553;-72
2022/11/28 05:50:57;;;;;;;6.03;4.50;;;9.20;99.90;;;;;;4984038;28;20469;-72
2022/11/28 05:53:24;;;;;;;6.30;4.37;;;9.20;99.90;;;;;;4993799;28;20240;-72
2022/11/28 05:55:53;;;;;;;7.30;4.50;;;9.20;99.90;;;;;;4985588;28;20424;-72
2022/11/28 05:58:24;;;;;;;6.53;4.67;;;9.20;99.90;;;;;;4993959;28;20937;-72
2022/11/28 06:00:50;;;;;;;6.70;4.37;;;9.20;99.90;;;;;;4993314;28;20437;-72
2022/11/28 06:03:18;;;;;;;6.10;4.83;;;9.20;99.90;;;;;;4976467;28;20429;-72
2022/11/28 06:05:49;;;;;;;6.40;4.30;;;9.20;99.90;;;;;;4992110;28;20496;-71
2022/11/28 06:08:15;;;;;;;5.73;4.70;;;9.20;99.90;;;;;;4993437;28;20434;-72
2022/11/28 06:10:43;;;;;;;5.83;4.20;;;9.20;99.90;;;;;;5011859;28;20468;-72
2022/11/28 06:13:10;;;;;;;5.20;4.20;;;9.20;99.90;;;;;;5004750;28;20459;-72
2022/11/28 06:15:35;;;;;;;9.13;4.27;;;9.20;99.90;;;;;;4995265;28;20408;-72
2022/11/28 06:18:05;;;;;;;6.57;4.57;;;9.20;99.90;;;;;;4994913;28;20432;-72
2022/11/28 06:20:34;;;;;;;6.40;4.97;;;9.20;99.90;;;;;;4995145;28;20850;-72
2022/11/28 06:23:00;;;;;;;5.50;4.10;;;9.20;99.90;;;;;;4978354;28;20471;-72
2022/11/28 06:25:28;;;;;;;5.53;4.20;;;9.20;99.90;;;;;;4995530;28;20471;-72
2022/11/28 06:27:54;;;;;;;6.13;4.87;;;9.10;99.90;;;;;;4977372;28;20417;-72
2022/11/28 06:30:20;;;;;;;6.60;4.60;;;9.20;99.90;;;;;;4975246;28;20934;-72
2022/11/28 06:32:52;;;;;;;7.80;5.30;;;9.20;99.90;;;;;;4976516;28;20456;-72
2022/11/28 06:35:21;;;;;;;8.27;4.90;;;9.20;99.90;;;;;;4976030;28;20794;-72
2022/11/28 06:37:47;;;;;;;8.63;5.10;;;9.20;99.90;;;;;;4975895;28;20958;-72
2022/11/28 06:40:13;;;;;;;5.40;4.80;;;9.10;99.90;;;;;;4975881;28;20460;-72
2022/11/28 06:42:39;;;;;;;7.33;5.17;;;9.10;99.90;;;;;;4989928;28;20435;-72
2022/11/28 06:45:06;;;;;;;5.20;4.53;;;9.10;99.90;;;;;;4994793;28;20412;-72
2022/11/28 06:47:32;;;;;;;6.07;5.40;;;9.10;99.90;;;;;;4994116;28;20447;-72
2022/11/28 06:50:00;;;;;;;5.00;4.50;;;9.20;99.90;;;;;;4994558;28;20460;-72
2022/11/28 06:52:28;;;;;;;6.27;5.20;;;9.20;99.90;;;;;;4982112;28;20434;-72
2022/11/28 06:54:54;;;;;;;8.63;5.17;;;9.20;99.90;;;;;;5008703;28;20461;-72
2022/11/28 06:57:21;;;;;;;6.07;5.20;;;9.10;99.90;;;;;;4994544;28;20419;-72
2022/11/28 06:59:48;;;;;;;7.33;4.70;;;9.20;99.90;;;;;;4994557;28;20432;-72
2022/11/28 07:02:16;;;;;;;4.87;4.33;;;9.20;99.90;;;;;;4983260;28;20433;-75
2022/11/28 07:04:42;;;;;;;7.40;5.63;;;9.20;99.90;;;;;;4992698;28;20444;-72
2022/11/28 07:07:10;;;;;;;8.60;5.07;;;9.20;99.90;;;;;;4976227;28;20499;-72
2022/11/28 07:09:42;;;;;;;6.50;4.50;;;9.20;99.90;;;;;;4974745;28;20469;-72
2022/11/28 07:12:10;;;;;;;6.53;4.60;;;9.20;99.90;;;;;;4996231;28;20432;-72
2022/11/28 07:14:39;;;;;;;6.83;4.70;;;9.20;99.90;;;;;;4994261;28;20432;-72
2022/11/28 07:17:05;;;;;;;6.97;5.03;;;9.20;99.90;;;;;;4980447;28;20949;-72
2022/11/28 07:19:33;;;;;;;5.53;4.63;;;9.10;99.90;;;;;;5009988;28;20271;-72
2022/11/28 07:21:59;;;;;;;6.23;5.10;;;9.10;99.90;;;;;;4993969;28;20478;-72
2022/11/28 07:24:29;;;;;;;8.90;5.20;;;9.10;99.90;;;;;;4993815;28;20419;-72
2022/11/28 07:26:55;;;;;;;5.93;4.63;;;9.10;99.90;;;;;;5003929;28;20455;-72
2022/11/28 07:29:23;;;;;;;5.57;4.97;;;9.10;99.90;;;;;;5008434;28;20469;-72
2022/11/28 07:31:52;;;;;;;7.70;5.90;;;9.10;99.90;;;;;;4992236;28;20455;-72
2022/11/28 07:34:18;;;;;;;5.20;4.70;;;9.20;99.90;;;;;;4975630;28;20416;-72
2022/11/28 07:36:44;;;;;;;5.47;4.50;;;9.10;99.90;;;;;;4994409;28;20754;-72
2022/11/28 07:39:14;;;;;;;6.23;4.80;;;9.10;99.90;;;;;;5010566;28;20991;-72
2022/11/28 07:41:40;;;;;;;5.20;4.30;;;9.10;99.90;;;;;;4990766;28;20535;-72
2022/11/28 07:44:06;;;;;;;6.40;5.53;;;9.10;99.90;;;;;;4974828;28;20449;-72
2022/11/28 07:46:32;;;;;;;6.20;4.83;;;9.20;99.90;;;;;;4959831;28;20436;-72
2022/11/28 07:48:59;;;;;;;4.90;4.40;;;9.10;99.90;;;;;;4990744;28;20820;-72
2022/11/28 07:51:30;;;;;;;5.50;4.20;;;9.10;99.90;;;;;;4974273;28;20469;-72
2022/11/28 07:53:58;;;;;;;5.43;4.40;;;9.10;99.90;;;;;;4979168;28;20982;-72
2022/11/28 07:56:28;;;;;;;5.97;5.13;;;9.10;99.90;;;;;;4994285;28;20992;-72
2022/11/28 07:58:59;;;;;;;5.30;4.80;;;9.10;99.90;;;;;;4996576;28;20432;-74
2022/11/28 08:01:27;;;;;;;5.80;4.60;;;9.10;99.90;;;;;;4977037;28;20450;-72
2022/11/28 08:03:54;;;;;;;6.90;5.10;;;9.10;99.90;;;;;;4995886;28;20951;-72
2022/11/28 08:06:26;;;;;;;5.60;5.00;;;9.10;99.90;;;;;;4978897;28;20962;-72
2022/11/28 08:08:53;;;;;;;6.63;4.93;;;9.10;99.90;;;;;;5013348;28;20423;-72
2022/11/28 08:11:21;;;;;;;6.33;5.30;;;9.10;99.90;;;;;;4962557;28;20516;-72
2022/11/28 08:13:50;;;;;;;7.77;5.27;;;9.10;99.90;;;;;;4973437;28;20455;-72
2022/11/28 08:16:22;;;;;;;6.87;4.63;;;9.10;99.90;;;;;;4996861;28;20420;-72
2022/11/28 08:18:51;;;;;;;7.70;5.40;;;9.10;99.90;;;;;;4984536;28;20424;-72
2022/11/28 08:21:24;;;;;;;6.10;5.20;;;9.10;99.90;;;;;;5014514;28;20432;-72
2022/11/28 08:23:54;;;;;;;6.90;5.27;;;9.10;99.90;;;;;;5008324;28;20429;-72
2022/11/28 08:26:33;;;;;;;7.33;4.97;;;9.10;99.90;;;;;;4979268;28;20482;-72
2022/11/28 08:29:00;;;;;;;6.27;4.80;;;9.10;99.90;;;;;;4989518;28;20492;-72
2022/11/28 08:31:37;;;;;;;6.77;5.40;;;9.10;99.90;;;;;;4977469;28;20469;-72
2022/11/28 08:34:06;;;;;;;7.37;5.20;;;9.10;99.90;;;;;;5006741;28;20443;-72
2022/11/28 08:36:32;;;;;;;6.87;4.83;;;9.10;99.90;;;;;;5014014;28;20573;-72
2022/11/28 08:39:00;;;;;;;6.87;4.90;;;9.10;99.90;;;;;;4995125;28;20414;-72
2022/11/28 08:41:28;;;;;;;7.77;5.00;;;9.10;99.90;;;;;;4985286;28;20500;-72
2022/11/28 08:43:56;;;;;;;5.37;4.87;;;9.10;99.90;;;;;;4980172;28;20474;-72
2022/11/28 08:46:25;;;;;;;5.77;5.07;;;9.10;99.90;;;;;;5014281;28;20392;-72
2022/11/28 08:48:53;;;;;;;5.77;4.87;;;9.10;99.90;;;;;;4994291;28;20500;-72
2022/11/28 08:51:25;;;;;;;5.63;4.97;;;9.10;99.90;;;;;;5013396;28;20466;-72
2022/11/28 08:53:54;;;;;;;5.77;5.17;;;9.10;99.90;;;;;;4975146;28;20413;-72
2022/11/28 08:56:20;;;;;;;7.47;5.97;;;9.10;99.90;;;;;;4987495;28;20455;-72
2022/11/28 08:58:51;;;;;;;5.27;4.40;;;9.10;99.90;;;;;;4997979;28;20464;-72
2022/11/28 09:01:20;;;;;;;5.77;5.10;;;9.10;99.90;;;;;;4985854;28;20486;-72
2022/11/28 09:03:51;;;;;;;6.47;5.60;;;9.10;99.90;;;;;;4986308;28;20460;-73
2022/11/28 09:06:21;;;;;;;6.70;5.20;;;9.10;99.90;;;;;;5011621;28;20436;-71
2022/11/28 09:08:52;;;;;;;7.83;5.50;;;9.10;99.90;;;;;;4980922;28;20488;-72
2022/11/28 09:11:22;;;;;;;7.53;4.73;;;9.10;99.90;;;;;;5008353;28;20471;-71
2022/11/28 09:13:51;;;;;;;6.60;5.47;;;9.10;99.90;;;;;;5005594;28;20915;-71
2022/11/28 09:16:19;;;;;;;7.00;5.50;;;9.10;99.90;;;;;;4994636;28;20475;-71
2022/11/28 09:18:45;;;;;;;7.50;5.90;;;9.10;99.90;;;;;;5006040;28;20443;-71
2022/11/28 09:21:14;;;;;;;6.67;5.33;;;9.10;99.90;;;;;;4994545;28;20866;-71
2022/11/28 09:23:43;;;;;;;5.60;5.03;;;9.10;99.90;;;;;;4993826;28;20409;-71
2022/11/28 09:26:18;;;;;;;6.47;4.90;;;9.10;99.90;;;;;;4964964;28;20969;-71
2022/11/28 09:28:44;;;;;;;7.50;6.27;;;9.10;99.90;;;;;;4976809;28;20432;-71
2022/11/28 09:31:14;;;;;;;7.03;6.20;;;9.10;99.90;;;;;;5009986;28;20456;-71
2022/11/28 09:33:40;;;;;;;7.73;6.23;;;9.10;99.90;;;;;;4976405;28;20433;-71
2022/11/28 09:36:14;;;;;;;7.20;5.77;;;9.10;99.90;;;;;;4976516;28;21011;-71
2022/11/28 09:38:43;;;;;;;7.43;5.77;;;9.10;99.90;;;;;;4995991;28;20417;-71
2022/11/28 09:41:38;;;;;;;10.03;5.80;;;9.10;99.90;;;;;;4980377;28;20472;-71
2022/11/28 09:44:13;;;;;;;6.60;6.00;;;9.10;99.90;;;;;;5009154;28;20440;-71
2022/11/28 09:46:40;;;;;;;8.60;5.70;;;9.10;99.90;;;;;;4993713;28;20419;-71
2022/11/28 09:49:43;;;;;;;7.90;6.63;;;9.10;99.90;;;;;;4995465;28;20451;-71
2022/11/28 09:52:12;;;;;;;7.57;6.00;;;9.10;99.90;;;;;;5003033;28;20805;-71
2022/11/28 09:54:54;;;;;;;7.33;6.57;;;9.10;99.90;;;;;;4984649;28;20418;-71
2022/11/28 09:57:34;;;;;;;7.77;6.97;;;9.10;99.90;;;;;;4990862;28;20489;-73
2022/11/28 10:00:37;;;;;;;7.33;6.07;;;9.10;99.90;;;;;;5036477;22;20530;31
2022/11/28 10:03:15;;;;;;;7.93;6.17;;;9.10;99.90;;;;;;4971407;28;20809;-72
2022/11/28 10:05:48;;;;;;;7.80;5.77;;;9.10;99.90;;;;;;4956565;28;20426;-72
2022/11/28 10:08:29;;;;;;;7.07;6.00;;;9.10;99.90;;;;;;4940895;28;20476;-72
2022/11/28 10:11:02;;;;;;;7.97;5.87;;;9.10;99.90;;;;;;4959397;28;20894;-72
2022/11/28 10:13:45;;;;;;;8.13;6.17;;;9.10;99.90;;;;;;4985722;28;20803;-72
2022/11/28 10:16:25;;;;;;;6.60;5.53;;;9.10;99.90;;;;;;4936019;29;20446;-72
2022/11/28 10:18:59;;;;;;;7.80;5.77;;;9.10;99.90;;;;;;4946685;29;20451;-72
2022/11/28 10:21:28;;;;;;;7.90;6.30;;;9.10;99.90;;;;;;4943139;29;20475;-73
2022/11/28 10:24:02;;;;;;;7.67;6.20;;;9.20;99.90;;;;;;4960736;28;20421;-73
2022/11/28 10:26:58;;;;;;;8.90;5.97;;;9.20;99.90;;;;;;4963828;28;20441;-73
2022/11/28 10:29:28;;;;;;;6.67;5.07;;;9.10;99.90;;;;;;4960070;28;20501;-73
2022/11/28 10:32:00;;;;;;;7.33;5.57;;;9.10;99.90;;;;;;4971855;28;20470;-73
2022/11/28 10:34:34;;;;;;;9.90;6.80;;;9.10;99.90;;;;;;4982897;28;20430;-73
2022/11/28 10:37:09;;;;;;;6.60;5.20;;;9.20;99.90;;;;;;4968016;28;20922;-73
2022/11/28 10:39:40;;;;;;;6.27;5.10;;;9.20;99.90;;;;;;4977496;28;20450;-73
2022/11/28 10:42:16;;;;;;;5.50;5.00;;;9.20;99.90;;;;;;4952887;29;20470;-73
2022/11/28 10:45:22;;;;;;;10.53;6.03;;;9.20;99.90;;;;;;4953505;28;20418;-73
2022/11/28 10:47:51;;;;;;;6.43;5.47;;;9.20;99.90;;;;;;4960010;28;20553;-73
2022/11/28 10:50:45;;;;;;;5.70;4.93;;;9.20;99.90;;;;;;4988403;28;20559;-73
2022/11/28 10:54:09;;;;;;;6.93;4.80;;;9.20;99.90;;;;;;4981109;28;20454;-74
2022/11/28 10:56:55;;;;;;;6.80;5.50;;;9.20;99.90;;;;;;4911990;28;20418;-73
2022/11/28 10:59:47;;;;;;;5.00;4.43;;;9.20;99.90;;;;;;4960264;28;20445;-73
2022/11/28 11:02:21;;;;;;;7.17;5.13;;;9.20;99.90;;;;;;4971115;28;20507;-73
2022/11/28 11:04:50;;;;;;;9.13;5.17;;;9.20;99.90;;;;;;4959095;28;20521;-73
2022/11/28 11:07:24;;;;;;;7.23;5.70;;;9.20;99.90;;;;;;4955870;28;20888;-74
2022/11/28 11:09:54;;;;;;;6.00;5.10;;;9.20;99.90;;;;;;4968040;28;20461;-73
2022/11/28 11:12:25;;;;;;;8.07;5.67;;;9.20;99.90;;;;;;4955624;28;20395;-74
2022/11/28 11:14:59;;;;;;;8.67;5.90;;;9.20;99.90;;;;;;4988722;28;20484;-74
2022/11/28 11:17:33;;;;;;;7.00;4.63;;;9.20;99.90;;;;;;4975097;28;20406;-74
2022/11/28 11:20:24;;;;;;;6.27;4.93;;;9.20;99.90;;;;;;4958683;28;20920;-74
2022/11/28 11:23:09;;;;;;;5.87;4.70;;;9.20;99.90;;;;;;4963587;28;20564;-75
2022/11/28 11:25:53;;;;;;;6.53;5.10;;;9.20;99.90;;;;;;4949059;28;20432;-74
2022/11/28 11:28:31;;;;;;;6.00;4.90;;;9.20;99.90;;;;;;4986295;28;20980;-76
2022/11/28 11:31:04;;;;;;;5.77;4.53;;;9.20;99.90;;;;;;4990876;28;20559;-75
2022/11/28 11:33:37;;;;;;;8.67;5.80;;;9.20;99.90;;;;;;4987706;28;20515;-76
2022/11/28 11:36:24;;;;;;;6.73;4.70;;;9.20;99.90;;;;;;4951142;28;20455;-74
2022/11/28 11:38:51;;;;;;;7.30;5.80;;;9.20;99.90;;;;;;4966402;28;20454;-74
2022/11/28 11:41:28;;;;;;;8.83;4.80;;;9.20;99.90;;;;;;4975883;28;20448;-73
2022/11/28 11:43:57;;;;;;;6.67;5.13;;;9.20;99.90;;;;;;4963391;28;20464;-74
2022/11/28 11:46:25;;;;;;;6.20;5.00;;;9.20;99.90;;;;;;4994105;28;20409;-74
2022/11/28 11:48:52;;;;;;;5.40;4.53;;;9.20;99.90;;;;;;4995912;28;20437;-74
2022/11/28 11:51:22;;;;;;;7.20;5.00;;;9.30;99.90;;;;;;4974852;28;20559;-73
2022/11/28 11:54:03;;;;;;;7.33;5.13;;;9.30;99.90;;;;;;4957658;28;20419;-73
2022/11/28 11:56:34;;;;;;;6.60;4.90;;;9.30;99.90;;;;;;4954274;28;20995;-73
2022/11/28 11:59:14;;;;;;;7.73;5.57;;;9.30;99.90;;;;;;4950616;28;20461;-73
2022/11/28 12:01:44;;;;;;;5.60;4.77;;;9.30;99.90;;;;;;4943045;28;20497;-73
2022/11/28 12:04:40;;;;;;;6.80;4.90;;;9.30;99.90;;;;;;4957843;28;20418;-73
2022/11/28 12:07:20;;;;;;;7.30;4.60;;;9.30;99.90;;;;;;4955005;28;20942;-73
2022/11/28 12:09:50;;;;;;;5.87;4.60;;;9.30;99.90;;;;;;4939904;28;20477;-73
2022/11/28 12:12:23;;;;;;;5.70;5.07;;;9.30;99.90;;;;;;4973641;28;20418;-73
2022/11/28 12:14:52;;;;;;;6.50;5.07;;;9.30;99.90;;;;;;4937830;28;20421;-74
2022/11/28 12:17:44;;;;;;;5.70;5.10;;;9.30;99.90;;;;;;4941520;28;21021;-73
2022/11/28 12:20:52;;;;;;;5.70;4.80;;;9.30;99.90;;;;;;4946391;28;20449;-73
2022/11/28 12:23:30;;;;;;;6.90;5.23;;;9.20;99.90;;;;;;4916002;29;20436;-74
2022/11/28 12:26:20;;;;;;;5.40;4.67;;;9.30;99.90;;;;;;4935380;29;20544;-74
2022/11/28 12:29:19;;;;;;;5.60;5.00;;;9.30;99.90;;;;;;4933903;28;20436;-74
2022/11/28 12:31:57;;;;;;;6.10;4.80;;;9.30;99.90;;;;;;4976378;28;20477;-73
2022/11/28 12:34:32;;;;;;;5.93;5.33;;;9.20;99.90;;;;;;4993308;28;20444;-74
2022/11/28 12:37:06;;;;;;;5.90;5.03;;;9.30;99.90;;;;;;4994915;28;20906;-74
2022/11/28 12:39:51;;;;;;;8.43;5.47;;;9.30;99.90;;;;;;4987167;28;20456;-74
2022/11/28 12:42:46;;;;;;;5.33;4.50;;;9.30;99.90;;;;;;4958742;28;20422;-74
2022/11/28 12:45:28;;;;;;;6.80;5.10;;;9.30;99.90;;;;;;4991302;28;20895;-73
2022/11/28 12:48:20;;;;;;;6.13;4.77;;;9.30;99.90;;;;;;4959447;28;20420;-73
2022/11/28 12:50:59;;;;;;;7.53;4.83;;;9.30;99.90;;;;;;4947016;28;20485;-74
2022/11/28 12:53:40;;;;;;;6.80;5.10;;;9.30;99.90;;;;;;4993373;28;20890;-74
2022/11/28 12:56:31;;;;;;;7.43;5.47;;;9.30;99.90;;;;;;4983001;28;20436;-72
2022/11/28 12:59:08;;;;;;;5.57;4.47;;;9.30;99.90;;;;;;4949780;29;20987;-73
2022/11/28 13:02:00;;;;;;;7.17;5.47;;;9.30;99.90;;;;;;4953541;28;20470;-73
2022/11/28 13:04:36;;;;;;;6.47;4.70;;;9.30;99.90;;;;;;4961773;28;20987;-73
2022/11/28 13:07:47;;;;;;;7.63;4.57;;;9.30;99.90;;;;;;4961597;28;20986;-73
2022/11/28 13:10:30;;;;;;;5.67;4.67;;;9.30;99.90;;;;;;4972487;28;20883;-73
2022/11/28 13:13:11;;;;;;;6.73;4.80;;;9.30;99.90;;;;;;4957319;28;20441;-72
2022/11/28 13:15:56;;;;;;;6.13;5.43;;;9.30;99.90;;;;;;4961863;28;20513;-73
2022/11/28 13:18:48;;;;;;;6.63;5.43;;;9.30;99.90;;;;;;4941789;28;20798;-73
2022/11/28 13:21:31;;;;;;;5.23;4.63;;;9.30;99.90;;;;;;4966653;28;20787;-73
2022/11/28 13:24:42;;;;;;;8.20;5.70;;;9.30;99.90;;;;;;4977553;28;20428;-73
2022/11/28 13:27:35;;;;;;;5.90;4.50;;;9.30;99.90;;;;;;4965147;28;20438;-72
2022/11/28 13:30:22;;;;;;;6.23;4.80;;;9.30;99.90;;;;;;4956016;28;20477;-73
2022/11/28 13:33:19;;;;;;;8.10;4.47;;;9.30;99.90;;;;;;4957349;28;20446;-73
2022/11/28 13:35:48;;;;;;;4.90;4.40;;;9.30;99.90;;;;;;4963489;28;20471;-73
2022/11/28 13:38:20;;;;;;;5.97;5.07;;;9.30;99.90;;;;;;4953689;29;20433;-73